createdAt,value
2019-04-06T00:00:15.052Z,98.2864
2019-04-06T00:01:01.433Z,98.2193
2019-04-06T00:01:47.758Z,98.4466
2019-04-06T00:02:34.082Z,98.5214
2019-04-06T00:03:20.368Z,98.4833
2019-04-06T00:04:06.708Z,98.3749
2019-04-06T00:04:53.004Z,98.3566
2019-04-06T00:05:39.398Z,98.2971
2019-04-06T00:06:25.702Z,98.2635
2019-04-06T00:07:12.075Z,98.3734
2019-04-06T00:07:58.432Z,98.4527
2019-04-06T00:08:44.778Z,98.4482
2019-04-06T00:09:31.113Z,98.4207
2019-04-06T00:10:18.535Z,98.4237
2019-04-06T00:11:04.839Z,98.3642
2019-04-06T00:11:51.260Z,98.3413
2019-04-06T00:12:37.608Z,98.3200
2019-04-06T00:13:23.958Z,98.3291
2019-04-06T00:14:10.273Z,98.3093
2019-04-06T00:14:56.646Z,98.1994
2019-04-06T00:15:41.966Z,98.0529
2019-04-06T00:16:28.307Z,98.1491
2019-04-06T00:17:14.596Z,98.4344
2019-04-06T00:18:00.920Z,98.4421
2019-04-06T00:18:47.228Z,98.5245
2019-04-06T00:19:33.612Z,98.6633
2019-04-06T00:20:19.947Z,98.7442
2019-04-06T00:21:06.279Z,98.8006
2019-04-06T00:21:52.588Z,98.7945
2019-04-06T00:22:38.948Z,98.8190
2019-04-06T00:23:25.269Z,98.7579
2019-04-06T00:24:11.698Z,98.5901
2019-04-06T00:24:58.058Z,98.4649
2019-04-06T00:25:45.068Z,98.1918
2019-04-06T00:26:31.472Z,98.2040
2019-04-06T00:27:17.814Z,97.8561
2019-04-06T00:28:04.117Z,98.2147
2019-04-06T00:28:50.506Z,98.3185
2019-04-06T00:29:36.788Z,98.6343
2019-04-06T00:30:23.120Z,98.7869
2019-04-06T00:31:08.432Z,98.9059
2019-04-06T00:31:54.805Z,99.0280
2019-04-06T00:32:41.092Z,99.1516
2019-04-06T00:33:27.518Z,99.1852
2019-04-06T00:34:13.800Z,99.1379
2019-04-06T00:35:00.139Z,99.0204
2019-04-06T00:35:46.432Z,98.9548
2019-04-06T00:36:32.858Z,98.9242
2019-04-06T00:37:11.280Z,98.7854
2019-04-06T00:37:57.760Z,98.8830
2019-04-06T00:38:44.098Z,99.0066
2019-04-06T00:39:30.482Z,99.1119
2019-04-06T00:40:16.763Z,99.2355
2019-04-06T00:41:03.122Z,99.2859
2019-04-06T00:41:49.402Z,99.4324
2019-04-06T00:42:35.897Z,99.4369
2019-04-06T00:43:22.259Z,99.4369
2019-04-06T00:44:08.640Z,99.5102
2019-04-06T00:44:54.940Z,99.5178
2019-04-06T00:45:41.317Z,99.4781
2019-04-06T00:46:27.602Z,99.4446
2019-04-06T00:47:14.036Z,99.4278
2019-04-06T00:48:00.391Z,99.4720
2019-04-06T00:48:46.809Z,99.4690
2019-04-06T00:49:33.117Z,99.4354
2019-04-06T00:50:19.508Z,99.4492
2019-04-06T00:51:05.800Z,99.4553
2019-04-06T00:51:52.192Z,99.4354
2019-04-06T00:52:37.490Z,99.5132
2019-04-06T00:53:23.828Z,99.5422
2019-04-06T00:54:10.118Z,99.5972
2019-04-06T00:54:57.516Z,99.5880
2019-04-06T00:55:54.823Z,99.5956
2019-04-06T00:56:35.176Z,99.4766
2019-04-06T00:57:20.486Z,99.3683
2019-04-06T00:58:06.880Z,99.3225
2019-04-06T00:58:53.216Z,99.2630
2019-04-06T00:59:39.572Z,99.2843
2019-04-06T01:00:25.866Z,99.3179
2019-04-06T01:01:12.253Z,99.3713
2019-04-06T01:01:58.566Z,99.3271
2019-04-06T01:02:45.022Z,99.2431
2019-04-06T01:03:31.316Z,99.1073
2019-04-06T01:04:17.716Z,99.2126
2019-04-06T01:05:04.087Z,99.3622
2019-04-06T01:05:50.478Z,99.3713
2019-04-06T01:06:36.778Z,99.0921
2019-04-06T01:07:23.525Z,99.2843
2019-04-06T01:08:09.870Z,99.3851
2019-04-06T01:08:56.275Z,99.4598
2019-04-06T01:09:41.618Z,99.4507
2019-04-06T01:10:27.998Z,99.5148
2019-04-06T01:11:14.294Z,99.5407
2019-04-06T01:12:00.680Z,99.6246
2019-04-06T01:12:46.984Z,99.6551
2019-04-06T01:13:33.360Z,99.7528
2019-04-06T01:14:19.698Z,99.8337
2019-04-06T01:15:06.068Z,99.8810
2019-04-06T01:15:52.364Z,100.0000
2019-04-06T01:16:38.710Z,99.9619
2019-04-06T01:17:25.043Z,100.0000
2019-04-06T01:18:11.430Z,100.0000
2019-04-06T01:18:57.768Z,100.0000
2019-04-06T01:19:44.186Z,100.0000
2019-04-06T01:20:30.493Z,100.0000
2019-04-06T01:21:16.872Z,100.0000
2019-04-06T01:22:03.176Z,100.0000
2019-04-06T01:22:49.510Z,100.0000
2019-04-06T01:23:35.859Z,100.0000
2019-04-06T01:24:22.319Z,100.0000
2019-04-06T01:25:08.652Z,100.0000
2019-04-06T01:26:06.298Z,100.0000
2019-04-06T01:26:46.333Z,100.0000
2019-04-06T01:27:32.669Z,99.9771
2019-04-06T01:28:18.013Z,99.9435
2019-04-06T01:29:04.421Z,100.0000
2019-04-06T01:29:50.827Z,100.0000
2019-04-06T01:30:37.106Z,100.0000
2019-04-06T01:31:23.440Z,100.0000
2019-04-06T01:32:09.730Z,100.0000
2019-04-06T01:32:56.101Z,100.0000
2019-04-06T01:33:42.444Z,100.0000
2019-04-06T01:34:28.862Z,100.0000
2019-04-06T01:35:15.172Z,100.0000
2019-04-06T01:36:01.568Z,100.0000
2019-04-06T01:36:47.900Z,100.0000
2019-04-06T01:37:34.252Z,99.9771
2019-04-06T01:38:20.560Z,99.9069
2019-04-06T01:39:06.933Z,100.0000
2019-04-06T01:39:53.250Z,100.0000
2019-04-06T01:40:39.652Z,100.0000
2019-04-06T01:41:26.025Z,100.0000
2019-04-06T01:42:12.456Z,100.0000
2019-04-06T01:42:58.790Z,100.0000
2019-04-06T01:43:45.158Z,100.0000
2019-04-06T01:44:31.489Z,100.0000
2019-04-06T01:45:17.820Z,100.0000
2019-04-06T01:46:04.106Z,100.0000
2019-04-06T01:46:50.436Z,100.0000
2019-04-06T01:47:35.835Z,100.0000
2019-04-06T01:48:22.246Z,100.0000
2019-04-06T01:49:08.609Z,100.0000
2019-04-06T01:49:54.988Z,100.0000
2019-04-06T01:50:41.375Z,100.0000
2019-04-06T01:51:27.816Z,100.0000
2019-04-06T01:52:14.126Z,100.0000
2019-04-06T01:53:00.478Z,100.0000
2019-04-06T01:53:46.769Z,100.0000
2019-04-06T01:54:34.174Z,100.0000
2019-04-06T01:55:19.460Z,100.0000
2019-04-06T01:56:05.820Z,100.0000
2019-04-06T01:56:52.176Z,100.0000
2019-04-06T01:57:38.619Z,100.0000
2019-04-06T01:58:24.913Z,100.0000
2019-04-06T01:59:11.267Z,100.0000
2019-04-06T01:59:57.562Z,100.0000
2019-04-06T02:00:43.923Z,100.0000
2019-04-06T02:01:30.257Z,100.0000
2019-04-06T02:02:16.660Z,100.0000
2019-04-06T02:03:01.962Z,100.0000
2019-04-06T02:03:48.343Z,100.0000
2019-04-06T02:04:34.616Z,100.0000
2019-04-06T02:05:19.961Z,100.0000
2019-04-06T02:06:06.326Z,100.0000
2019-04-06T02:06:52.720Z,100.0000
2019-04-06T02:07:39.006Z,100.0000
2019-04-06T02:08:25.385Z,100.0000
2019-04-06T02:09:11.708Z,100.0000
2019-04-06T02:09:58.082Z,100.0000
2019-04-06T02:10:44.400Z,100.0000
2019-04-06T02:11:30.752Z,100.0000
2019-04-06T02:12:17.079Z,100.0000
2019-04-06T02:13:03.410Z,100.0000
2019-04-06T02:13:49.715Z,100.0000
2019-04-06T02:14:36.090Z,100.0000
2019-04-06T02:15:22.376Z,100.0000
2019-04-06T02:16:07.728Z,100.0000
2019-04-06T02:16:54.028Z,100.0000
2019-04-06T02:17:40.418Z,100.0000
2019-04-06T02:18:26.732Z,100.0000
2019-04-06T02:19:13.098Z,100.0000
2019-04-06T02:19:59.387Z,100.0000
2019-04-06T02:20:45.746Z,100.0000
2019-04-06T02:21:32.072Z,100.0000
2019-04-06T02:22:18.574Z,100.0000
2019-04-06T02:23:04.900Z,100.0000
2019-04-06T02:23:51.308Z,100.0000
2019-04-06T02:24:37.590Z,100.0000
2019-04-06T02:25:23.953Z,100.0000
2019-04-06T02:26:10.288Z,100.0000
2019-04-06T02:26:55.651Z,100.0000
2019-04-06T02:27:41.943Z,100.0000
2019-04-06T02:28:28.293Z,100.0000
2019-04-06T02:29:14.584Z,100.0000
2019-04-06T02:30:01.125Z,100.0000
2019-04-06T02:30:47.453Z,100.0000
2019-04-06T02:31:33.822Z,100.0000
2019-04-06T02:32:20.123Z,100.0000
2019-04-06T02:33:06.499Z,100.0000
2019-04-06T02:33:52.819Z,100.0000
2019-04-06T02:34:39.345Z,100.0000
2019-04-06T02:35:25.674Z,100.0000
2019-04-06T02:36:12.020Z,100.0000
2019-04-06T02:36:58.318Z,100.0000
2019-04-06T02:37:44.708Z,100.0000
2019-04-06T02:38:30.019Z,100.0000
2019-04-06T02:39:16.351Z,100.0000
2019-04-06T02:40:01.687Z,100.0000
2019-04-06T02:40:48.113Z,100.0000
2019-04-06T02:41:33.394Z,100.0000
2019-04-06T02:42:19.793Z,100.0000
2019-04-06T02:43:06.152Z,100.0000
2019-04-06T02:43:52.662Z,100.0000
2019-04-06T02:44:38.965Z,100.0000
2019-04-06T02:45:25.303Z,100.0000
2019-04-06T02:46:11.580Z,100.0000
2019-04-06T02:46:57.956Z,100.0000
2019-04-06T02:47:44.240Z,100.0000
2019-04-06T02:48:30.592Z,100.0000
2019-04-06T02:49:16.879Z,100.0000
2019-04-06T02:50:03.277Z,100.0000
2019-04-06T02:50:49.640Z,100.0000
2019-04-06T02:51:36.107Z,100.0000
2019-04-06T02:52:22.562Z,100.0000
2019-04-06T02:53:07.988Z,100.0000
2019-04-06T02:53:54.269Z,100.0000
2019-04-06T02:54:40.836Z,100.0000
2019-04-06T02:55:27.174Z,100.0000
2019-04-06T02:56:13.524Z,100.0000
2019-04-06T02:56:59.888Z,100.0000
2019-04-06T02:57:46.300Z,100.0000
2019-04-06T02:58:32.589Z,100.0000
2019-04-06T02:59:18.050Z,100.0000
2019-04-06T03:00:04.363Z,100.0000
2019-04-06T03:00:51.087Z,100.0000
2019-04-06T03:01:37.447Z,100.0000
2019-04-06T03:02:23.841Z,100.0000
2019-04-06T03:03:10.159Z,100.0000
2019-04-06T03:03:56.535Z,100.0000
2019-04-06T03:04:42.867Z,100.0000
2019-04-06T03:05:29.401Z,100.0000
2019-04-06T03:06:15.732Z,100.0000
2019-04-06T03:07:02.215Z,100.0000
2019-04-06T03:07:48.690Z,100.0000
2019-04-06T03:08:35.052Z,100.0000
2019-04-06T03:09:21.353Z,100.0000
2019-04-06T03:10:07.718Z,100.0000
2019-04-06T03:10:54.018Z,100.0000
2019-04-06T03:11:39.399Z,100.0000
2019-04-06T03:12:25.711Z,100.0000
2019-04-06T03:13:12.278Z,100.0000
2019-04-06T03:13:58.617Z,100.0000
2019-04-06T03:14:44.969Z,100.0000
2019-04-06T03:15:31.283Z,100.0000
2019-04-06T03:16:17.635Z,100.0000
2019-04-06T03:17:03.925Z,100.0000
2019-04-06T03:17:50.310Z,100.0000
2019-04-06T03:18:36.662Z,100.0000
2019-04-06T03:19:23.069Z,100.0000
2019-04-06T03:20:09.383Z,100.0000
2019-04-06T03:20:55.718Z,100.0000
2019-04-06T03:21:42.008Z,100.0000
2019-04-06T03:22:28.402Z,100.0000
2019-04-06T03:23:14.779Z,100.0000
2019-04-06T03:24:01.208Z,100.0000
2019-04-06T03:24:47.489Z,100.0000
2019-04-06T03:25:33.889Z,100.0000
2019-04-06T03:26:20.213Z,100.0000
2019-04-06T03:27:06.622Z,100.0000
2019-04-06T03:27:52.902Z,100.0000
2019-04-06T03:28:39.294Z,100.0000
2019-04-06T03:29:25.653Z,100.0000
2019-04-06T03:30:12.376Z,100.0000
2019-04-06T03:30:59.000Z,100.0000
2019-04-06T03:31:45.375Z,100.0000
2019-04-06T03:32:31.664Z,100.0000
2019-04-06T03:33:18.038Z,100.0000
2019-04-06T03:34:04.379Z,100.0000
2019-04-06T03:34:50.788Z,100.0000
2019-04-06T03:35:37.177Z,100.0000
2019-04-06T03:36:23.859Z,100.0000
2019-04-06T03:37:10.268Z,100.0000
2019-04-06T03:37:56.622Z,100.0000
2019-04-06T03:38:42.941Z,100.0000
2019-04-06T03:39:29.370Z,100.0000
2019-04-06T03:40:15.659Z,100.0000
2019-04-06T03:41:02.061Z,100.0000
2019-04-06T03:41:47.387Z,100.0000
2019-04-06T03:42:33.779Z,100.0000
2019-04-06T03:43:19.160Z,100.0000
2019-04-06T03:44:07.534Z,100.0000
2019-04-06T03:44:53.933Z,100.0000
2019-04-06T03:45:40.328Z,100.0000
2019-04-06T03:46:26.934Z,100.0000
2019-04-06T03:47:13.296Z,100.0000
2019-04-06T03:47:59.628Z,100.0000
2019-04-06T03:48:45.910Z,100.0000
2019-04-06T03:49:32.340Z,100.0000
2019-04-06T03:50:18.670Z,100.0000
2019-04-06T03:51:05.028Z,100.0000
2019-04-06T03:51:50.393Z,100.0000
2019-04-06T03:52:36.804Z,100.0000
2019-04-06T03:53:23.104Z,100.0000
2019-04-06T03:54:09.642Z,100.0000
2019-04-06T03:54:55.960Z,100.0000
2019-04-06T03:55:42.576Z,100.0000
2019-04-06T03:56:28.891Z,100.0000
2019-04-06T03:57:16.817Z,100.0000
2019-04-06T03:58:03.440Z,100.0000
2019-04-06T03:58:52.263Z,100.0000
2019-04-06T03:59:38.984Z,100.0000
2019-04-06T04:00:25.385Z,100.0000
2019-04-06T04:01:11.677Z,100.0000
2019-04-06T04:01:58.059Z,100.0000
2019-04-06T04:02:44.382Z,100.0000
2019-04-06T04:03:30.833Z,100.0000
2019-04-06T04:04:17.142Z,100.0000
2019-04-06T04:05:03.541Z,100.0000
2019-04-06T04:05:49.879Z,100.0000
2019-04-06T04:06:36.238Z,100.0000
2019-04-06T04:07:22.546Z,100.0000
2019-04-06T04:08:08.987Z,100.0000
2019-04-06T04:08:55.359Z,100.0000
2019-04-06T04:09:41.705Z,100.0000
2019-04-06T04:10:28.040Z,100.0000
2019-04-06T04:11:14.407Z,100.0000
2019-04-06T04:12:00.703Z,100.0000
2019-04-06T04:12:47.082Z,100.0000
2019-04-06T04:13:33.421Z,100.0000
2019-04-06T04:14:19.811Z,100.0000
2019-04-06T04:15:06.109Z,100.0000
2019-04-06T04:15:52.778Z,100.0000
2019-04-06T04:16:42.288Z,100.0000
2019-04-06T04:17:28.641Z,100.0000
2019-04-06T04:18:14.946Z,100.0000
2019-04-06T04:19:01.326Z,100.0000
2019-04-06T04:19:47.640Z,100.0000
2019-04-06T04:20:33.008Z,100.0000
2019-04-06T04:21:19.523Z,100.0000
2019-04-06T04:22:05.880Z,100.0000
2019-04-06T04:22:52.210Z,100.0000
2019-04-06T04:23:38.630Z,100.0000
2019-04-06T04:24:24.992Z,100.0000
2019-04-06T04:25:11.362Z,100.0000
2019-04-06T04:25:57.690Z,100.0000
2019-04-06T04:26:44.334Z,100.0000
2019-04-06T04:27:31.105Z,100.0000
2019-04-06T04:28:17.529Z,100.0000
2019-04-06T04:29:03.841Z,100.0000
2019-04-06T04:29:50.250Z,100.0000
2019-04-06T04:30:36.606Z,100.0000
2019-04-06T04:31:22.981Z,100.0000
2019-04-06T04:32:09.298Z,100.0000
2019-04-06T04:32:54.654Z,100.0000
2019-04-06T04:33:41.016Z,100.0000
2019-04-06T04:34:27.491Z,100.0000
2019-04-06T04:35:13.990Z,100.0000
2019-04-06T04:36:00.387Z,100.0000
2019-04-06T04:36:46.669Z,100.0000
2019-04-06T04:37:33.192Z,100.0000
2019-04-06T04:38:19.519Z,100.0000
2019-04-06T04:39:05.988Z,100.0000
2019-04-06T04:39:52.302Z,100.0000
2019-04-06T04:40:38.959Z,100.0000
2019-04-06T04:41:25.338Z,100.0000
2019-04-06T04:42:11.728Z,100.0000
2019-04-06T04:42:58.014Z,100.0000
2019-04-06T04:43:43.395Z,100.0000
2019-04-06T04:44:29.694Z,100.0000
2019-04-06T04:45:16.044Z,100.0000
2019-04-06T04:46:02.340Z,100.0000
2019-04-06T04:46:47.795Z,100.0000
2019-04-06T04:47:34.082Z,100.0000
2019-04-06T04:48:19.413Z,100.0000
2019-04-06T04:49:05.704Z,100.0000
2019-04-06T04:49:52.063Z,100.0000
2019-04-06T04:50:38.348Z,100.0000
2019-04-06T04:51:24.690Z,100.0000
2019-04-06T04:52:10.990Z,100.0000
2019-04-06T04:52:57.397Z,100.0000
2019-04-06T04:53:43.801Z,100.0000
2019-04-06T04:54:30.362Z,100.0000
2019-04-06T04:55:16.746Z,100.0000
2019-04-06T04:56:03.307Z,100.0000
2019-04-06T04:56:49.633Z,100.0000
2019-04-06T04:57:40.720Z,100.0000
2019-04-06T04:58:27.819Z,100.0000
2019-04-06T04:59:14.175Z,100.0000
2019-04-06T05:00:00.505Z,100.0000
2019-04-06T05:00:45.798Z,100.0000
2019-04-06T05:01:32.136Z,100.0000
2019-04-06T05:02:18.484Z,100.0000
2019-04-06T05:03:04.822Z,100.0000
2019-04-06T05:03:51.105Z,100.0000
2019-04-06T05:04:38.637Z,100.0000
2019-04-06T05:05:23.969Z,100.0000
2019-04-06T05:06:10.347Z,100.0000
2019-04-06T05:06:56.625Z,100.0000
2019-04-06T05:07:42.947Z,100.0000
2019-04-06T05:08:29.293Z,100.0000
2019-04-06T05:09:15.632Z,100.0000
2019-04-06T05:10:00.919Z,100.0000
2019-04-06T05:10:47.263Z,100.0000
2019-04-06T05:11:33.563Z,100.0000
2019-04-06T05:12:19.897Z,100.0000
2019-04-06T05:13:06.186Z,100.0000
2019-04-06T05:13:52.548Z,100.0000
2019-04-06T05:14:38.841Z,100.0000
2019-04-06T05:15:25.173Z,100.0000
2019-04-06T05:16:11.464Z,100.0000
2019-04-06T05:16:57.793Z,100.0000
2019-04-06T05:17:44.091Z,100.0000
2019-04-06T05:18:30.453Z,100.0000
2019-04-06T05:19:16.725Z,100.0000
2019-04-06T05:20:03.067Z,100.0000
2019-04-06T05:20:49.361Z,100.0000
2019-04-06T05:21:35.697Z,100.0000
2019-04-06T05:22:21.998Z,100.0000
2019-04-06T05:23:08.345Z,100.0000
2019-04-06T05:23:54.627Z,100.0000
2019-04-06T05:24:40.987Z,100.0000
2019-04-06T05:25:26.409Z,100.0000
2019-04-06T05:26:12.815Z,100.0000
2019-04-06T05:26:59.115Z,100.0000
2019-04-06T05:27:51.750Z,100.0000
2019-04-06T05:28:36.885Z,100.0000
2019-04-06T05:29:23.193Z,100.0000
2019-04-06T05:30:09.663Z,100.0000
2019-04-06T05:30:55.968Z,100.0000
2019-04-06T05:31:42.300Z,100.0000
2019-04-06T05:32:27.585Z,100.0000
2019-04-06T05:33:13.907Z,100.0000
2019-04-06T05:34:00.207Z,100.0000
2019-04-06T05:34:46.564Z,100.0000
2019-04-06T05:35:32.851Z,100.0000
2019-04-06T05:36:18.243Z,100.0000
2019-04-06T05:37:04.516Z,100.0000
2019-04-06T05:37:50.893Z,100.0000
2019-04-06T05:38:37.203Z,100.0000
2019-04-06T05:39:23.778Z,100.0000
2019-04-06T05:40:10.217Z,100.0000
2019-04-06T05:40:56.604Z,100.0000
2019-04-06T05:41:42.878Z,100.0000
2019-04-06T05:42:29.261Z,100.0000
2019-04-06T05:43:15.624Z,100.0000
2019-04-06T05:44:02.019Z,100.0000
2019-04-06T05:44:48.389Z,100.0000
2019-04-06T05:45:34.777Z,100.0000
2019-04-06T05:46:21.089Z,100.0000
2019-04-06T05:47:07.623Z,100.0000
2019-04-06T05:47:53.916Z,100.0000
2019-04-06T05:48:40.273Z,100.0000
2019-04-06T05:49:26.595Z,100.0000
2019-04-06T05:50:12.943Z,100.0000
2019-04-06T05:50:59.233Z,100.0000
2019-04-06T05:51:45.573Z,100.0000
2019-04-06T05:52:31.871Z,100.0000
2019-04-06T05:53:18.215Z,100.0000
2019-04-06T05:54:04.512Z,100.0000
2019-04-06T05:54:50.907Z,100.0000
2019-04-06T05:55:37.225Z,100.0000
2019-04-06T05:56:23.567Z,100.0000
2019-04-06T05:57:09.861Z,100.0000
2019-04-06T05:58:03.400Z,100.0000
2019-04-06T05:58:47.601Z,100.0000
2019-04-06T05:59:33.955Z,100.0000
2019-04-06T06:00:20.395Z,100.0000
2019-04-06T06:01:10.216Z,100.0000
2019-04-06T06:01:57.922Z,100.0000
2019-04-06T06:02:44.294Z,100.0000
2019-04-06T06:03:30.643Z,100.0000
2019-04-06T06:04:16.939Z,100.0000
2019-04-06T06:05:03.550Z,100.0000
2019-04-06T06:05:49.854Z,100.0000
2019-04-06T06:06:36.207Z,100.0000
2019-04-06T06:07:22.531Z,100.0000
2019-04-06T06:08:08.872Z,100.0000
2019-04-06T06:08:54.158Z,100.0000
2019-04-06T06:09:40.512Z,100.0000
2019-04-06T06:10:26.804Z,100.0000
2019-04-06T06:11:13.146Z,100.0000
2019-04-06T06:11:59.428Z,100.0000
2019-04-06T06:12:45.769Z,100.0000
2019-04-06T06:13:32.050Z,100.0000
2019-04-06T06:14:18.400Z,100.0000
2019-04-06T06:15:04.705Z,100.0000
2019-04-06T06:15:51.067Z,100.0000
2019-04-06T06:16:37.375Z,100.0000
2019-04-06T06:17:23.739Z,100.0000
2019-04-06T06:18:10.014Z,100.0000
2019-04-06T06:18:56.360Z,100.0000
2019-04-06T06:19:42.662Z,100.0000
2019-04-06T06:20:29.144Z,100.0000
2019-04-06T06:21:15.444Z,100.0000
2019-04-06T06:22:01.887Z,100.0000
2019-04-06T06:22:48.218Z,100.0000
2019-04-06T06:23:34.632Z,100.0000
2019-04-06T06:24:20.931Z,100.0000
2019-04-06T06:25:07.455Z,100.0000
2019-04-06T06:25:53.814Z,99.7742
2019-04-06T06:26:40.174Z,99.6185
2019-04-06T06:27:26.462Z,99.6323
2019-04-06T06:28:14.962Z,99.5697
2019-04-06T06:29:01.790Z,99.4034
2019-04-06T06:29:48.130Z,99.1699
2019-04-06T06:30:34.412Z,98.3841
2019-04-06T06:31:20.791Z,98.3093
2019-04-06T06:32:07.112Z,98.7671
2019-04-06T06:32:53.458Z,98.7671
2019-04-06T06:33:39.874Z,97.6455
2019-04-06T06:34:26.238Z,97.8927
2019-04-06T06:35:12.544Z,97.6333
2019-04-06T06:35:58.900Z,98.0209
2019-04-06T06:36:45.177Z,97.9248
2019-04-06T06:37:31.692Z,97.3678
2019-04-06T06:38:18.181Z,96.9268
2019-04-06T06:39:04.504Z,97.1572
2019-04-06T06:39:50.788Z,96.6903
2019-04-06T06:40:36.151Z,97.1252
2019-04-06T06:41:21.442Z,96.3516
2019-04-06T06:42:06.797Z,96.4523
2019-04-06T06:42:53.253Z,96.9192
2019-04-06T06:43:39.592Z,95.6054
2019-04-06T06:44:25.900Z,96.4599
2019-04-06T06:45:12.259Z,96.1593
2019-04-06T06:45:59.353Z,96.1685
2019-04-06T06:46:45.719Z,95.8617
2019-04-06T06:47:32.079Z,96.0861
2019-04-06T06:48:18.496Z,96.5393
2019-04-06T06:49:04.836Z,96.7498
2019-04-06T06:49:51.177Z,96.7544
2019-04-06T06:50:37.607Z,96.0586
2019-04-06T06:51:24.167Z,95.2606
2019-04-06T06:52:10.454Z,95.4269
2019-04-06T06:52:56.796Z,96.0677
2019-04-06T06:53:43.312Z,95.5764
2019-04-06T06:54:29.709Z,97.0825
2019-04-06T06:55:15.000Z,95.1934
2019-04-06T06:56:01.490Z,94.6014
2019-04-06T06:56:47.780Z,95.4162
2019-04-06T06:57:34.201Z,95.3384
2019-04-06T06:58:25.664Z,94.6212
2019-04-06T06:59:11.803Z,95.1064
2019-04-06T06:59:58.158Z,94.7814
2019-04-06T07:00:44.535Z,94.7524
2019-04-06T07:01:30.811Z,95.2056
2019-04-06T07:02:17.148Z,94.4869
2019-04-06T07:03:03.429Z,94.6212
2019-04-06T07:03:49.781Z,94.9096
2019-04-06T07:04:36.070Z,95.1339
2019-04-06T07:05:22.435Z,94.5205
2019-04-06T07:06:08.709Z,94.8852
2019-04-06T07:06:55.070Z,95.2239
2019-04-06T07:07:41.370Z,95.6008
2019-04-06T07:08:27.730Z,93.8613
2019-04-06T07:09:14.056Z,94.6014
2019-04-06T07:10:05.768Z,95.1736
2019-04-06T07:10:51.707Z,94.1344
2019-04-06T07:11:37.986Z,95.2377
2019-04-06T07:12:24.606Z,93.6263
2019-04-06T07:13:10.940Z,94.1680
2019-04-06T07:13:57.308Z,93.8094
2019-04-06T07:14:43.618Z,95.3948
2019-04-06T07:15:29.950Z,94.5480
2019-04-06T07:16:16.238Z,94.3236
2019-04-06T07:17:02.581Z,93.7545
2019-04-06T07:17:48.921Z,94.7265
2019-04-06T07:18:35.321Z,93.4768
2019-04-06T07:19:21.642Z,93.0831
2019-04-06T07:20:08.180Z,93.5821
2019-04-06T07:20:54.806Z,94.4320
2019-04-06T07:21:41.151Z,93.4127
2019-04-06T07:22:27.448Z,92.8573
2019-04-06T07:23:13.791Z,93.2891
2019-04-06T07:24:00.078Z,92.5139
2019-04-06T07:24:46.412Z,93.0282
2019-04-06T07:25:32.692Z,95.0561
2019-04-06T07:26:19.048Z,94.7066
2019-04-06T07:27:04.363Z,92.7932
2019-04-06T07:27:50.698Z,93.0129
2019-04-06T07:28:39.153Z,92.2133
2019-04-06T07:29:25.813Z,92.9641
2019-04-06T07:30:12.119Z,92.8313
2019-04-06T07:30:58.473Z,92.4788
2019-04-06T07:31:45.173Z,93.0404
2019-04-06T07:32:31.562Z,93.9330
2019-04-06T07:33:17.909Z,93.4768
2019-04-06T07:34:04.465Z,92.1218
2019-04-06T07:34:50.781Z,92.5643
2019-04-06T07:35:37.100Z,93.3700
2019-04-06T07:36:23.400Z,92.7489
2019-04-06T07:37:09.850Z,93.2387
2019-04-06T07:37:56.361Z,92.8817
2019-04-06T07:38:42.722Z,92.9809
2019-04-06T07:39:29.065Z,92.1126
2019-04-06T07:40:15.459Z,92.7199
2019-04-06T07:41:01.762Z,92.8985
2019-04-06T07:41:48.368Z,92.5414
2019-04-06T07:42:34.704Z,93.4615
2019-04-06T07:43:21.031Z,92.4056
2019-04-06T07:44:07.321Z,92.8496
2019-04-06T07:44:53.657Z,92.0195
2019-04-06T07:45:39.944Z,92.7672
2019-04-06T07:46:26.307Z,92.9580
2019-04-06T07:47:12.819Z,92.9992
2019-04-06T07:47:59.213Z,93.6080
2019-04-06T07:48:45.512Z,93.4356
2019-04-06T07:49:31.847Z,92.8847
2019-04-06T07:50:18.133Z,92.5917
2019-04-06T07:51:04.494Z,92.6787
2019-04-06T07:51:50.870Z,92.7153
2019-04-06T07:52:37.383Z,92.9351
2019-04-06T07:53:23.676Z,92.9137
2019-04-06T07:54:10.027Z,92.1660
2019-04-06T07:54:55.316Z,92.3262
2019-04-06T07:55:41.779Z,93.5760
2019-04-06T07:56:28.087Z,93.2845
2019-04-06T07:57:14.426Z,93.1975
2019-04-06T07:58:00.704Z,91.8196
2019-04-06T07:58:49.423Z,91.6259
2019-04-06T07:59:36.424Z,92.3857
2019-04-06T08:00:22.774Z,91.6457
2019-04-06T08:01:09.361Z,92.3369
2019-04-06T08:01:55.765Z,91.8471
2019-04-06T08:02:41.062Z,92.2545
2019-04-06T08:03:26.434Z,93.3288
2019-04-06T08:04:12.723Z,91.6091
2019-04-06T08:04:59.087Z,91.6075
2019-04-06T08:05:45.372Z,92.7214
2019-04-06T08:06:30.738Z,92.4315
2019-04-06T08:07:17.027Z,90.8217
2019-04-06T08:08:03.671Z,90.9758
2019-04-06T08:08:42.278Z,89.9916
2019-04-06T08:09:28.633Z,91.2932
2019-04-06T08:10:15.133Z,91.5129
2019-04-06T08:11:01.514Z,89.5979
2019-04-06T08:11:47.816Z,89.0913
2019-04-06T08:12:34.339Z,89.2454
2019-04-06T08:13:20.772Z,88.8975
2019-04-06T08:14:07.167Z,90.1060
2019-04-06T08:14:53.682Z,89.1051
2019-04-06T08:15:40.063Z,88.9998
2019-04-06T08:16:26.350Z,89.6132
2019-04-06T08:17:12.714Z,88.7831
2019-04-06T08:17:59.011Z,90.4540
2019-04-06T08:18:45.348Z,88.2979
2019-04-06T08:19:31.843Z,86.8391
2019-04-06T08:20:18.273Z,87.8950
2019-04-06T08:21:04.603Z,87.7531
2019-04-06T08:21:50.967Z,87.8874
2019-04-06T08:22:37.284Z,89.6849
2019-04-06T08:23:22.638Z,87.8584
2019-04-06T08:24:07.967Z,87.8447
2019-04-06T08:24:54.297Z,87.6158
2019-04-06T08:25:40.617Z,87.5166
2019-04-06T08:26:27.096Z,87.7897
2019-04-06T08:27:13.393Z,88.5237
2019-04-06T08:28:00.657Z,86.9581
2019-04-06T08:28:46.997Z,87.8447
2019-04-06T08:29:33.327Z,89.9596
2019-04-06T08:30:19.836Z,86.8147
2019-04-06T08:31:06.752Z,86.8696
2019-04-06T08:31:53.031Z,86.2898
2019-04-06T08:32:39.408Z,87.3869
2019-04-06T08:33:25.687Z,86.6133
2019-04-06T08:34:13.708Z,87.5944
2019-04-06T08:35:00.346Z,87.0161
2019-04-06T08:35:46.704Z,86.5309
2019-04-06T08:36:32.987Z,86.7750
2019-04-06T08:37:20.387Z,86.4805
2019-04-06T08:38:05.824Z,88.1102
2019-04-06T08:38:52.215Z,87.0268
2019-04-06T08:39:38.522Z,84.6235
2019-04-06T08:40:24.880Z,86.8711
2019-04-06T08:41:10.171Z,86.6361
2019-04-06T08:41:56.508Z,85.0706
2019-04-06T08:42:42.377Z,84.7913
2019-04-06T08:43:27.726Z,85.2308
2019-04-06T08:44:14.001Z,87.7531
2019-04-06T08:45:00.491Z,84.5090
2019-04-06T08:45:47.031Z,86.6560
2019-04-06T08:46:33.984Z,85.0340
2019-04-06T08:47:20.275Z,85.9266
2019-04-06T08:48:06.625Z,85.6062
2019-04-06T08:48:52.902Z,84.6586
2019-04-06T08:49:39.400Z,86.7918
2019-04-06T08:50:25.776Z,84.1611
2019-04-06T08:51:12.230Z,84.7974
2019-04-06T08:51:58.529Z,86.8742
2019-04-06T08:52:44.888Z,83.9399
2019-04-06T08:53:31.169Z,83.7262
2019-04-06T08:54:18.621Z,83.6332
2019-04-06T08:55:04.971Z,84.1611
2019-04-06T08:55:51.355Z,83.4607
2019-04-06T08:56:36.642Z,84.7974
2019-04-06T08:57:23.565Z,84.4404
2019-04-06T08:58:09.916Z,84.5777
2019-04-06T08:58:56.274Z,83.8682
2019-04-06T08:59:42.569Z,83.5843
2019-04-06T09:00:29.138Z,82.5864
2019-04-06T09:01:15.454Z,84.0330
2019-04-06T09:02:02.119Z,82.4262
2019-04-06T09:02:48.511Z,82.9114
2019-04-06T09:03:35.087Z,82.8336
2019-04-06T09:04:21.384Z,82.7283
2019-04-06T09:05:07.735Z,82.9847
2019-04-06T09:05:54.057Z,81.6525
2019-04-06T09:06:40.413Z,83.0747
2019-04-06T09:07:26.696Z,83.9582
2019-04-06T09:08:13.028Z,82.0508
2019-04-06T09:08:59.370Z,81.5702
2019-04-06T09:09:45.976Z,82.2461
2019-04-06T09:10:32.248Z,82.2553
2019-04-06T09:11:18.586Z,82.2507